Tenma — JD2303 — position and weather

sailwx.info

Track history (hours):
 
Tides and Currents Weather Stations Pressure Air Temp Water Temp Dewpoint Dewpoint Depression Visibility Wind Speed Wind Dir Waves Ship Positions

Tenma

Last reported at 2017-Oct-18 14:39 UTC. Time now 2017-Oct-18 18:17 UTC.
Position N 34°35' E 134°52'.

Length 80 m; draft 3.6 m.

Type: Cargo ship. MMSI: 431402072.

Date/timePositionNaut miles runAvg speedWind from/ knotsBaromVisibWave heightAir tempDewpointWater temp
2017-Oct-18 14:39N 34°35' E 134°52'812.0
2017-Oct-18 14:00N 34°37' E 135°01'612.9
2017-Oct-18 13:30N 34°37' E 135°09'510.8
2017-Oct-18 13:00N 34°39' E 135°15'0 0.3
2017-Oct-18 12:30N 34°39' E 135°15'0 0.0
2017-Oct-18 12:00N 34°39' E 135°15'0 0.0
2017-Oct-18 11:30N 34°39' E 135°15'0 0.0
2017-Oct-18 11:00N 34°39' E 135°15'0 0.3
2017-Oct-18 10:30N 34°39' E 135°15'0 0.7
2017-Oct-18 10:00N 34°40' E 135°15'3 5.1
2017-Oct-18 09:30N 34°41' E 135°13'0 0.0
2017-Oct-18 09:00N 34°41' E 135°13'0 0.0
2017-Oct-18 08:30N 34°41' E 135°13'0 0.0
2017-Oct-18 08:00N 34°41' E 135°13'0 0.0
2017-Oct-18 07:30N 34°41' E 135°13'0 0.0
2017-Oct-18 07:00N 34°41' E 135°13'0 0.0
2017-Oct-18 06:30N 34°41' E 135°13'0 0.0
2017-Oct-18 06:00N 34°41' E 135°13'0 0.0
2017-Oct-18 05:30N 34°41' E 135°13'0 0.0
2017-Oct-18 05:00N 34°41' E 135°13'0 0.0
2017-Oct-18 04:30N 34°41' E 135°13'0 0.0
2017-Oct-18 04:00N 34°41' E 135°13'0 0.0
2017-Oct-18 03:30N 34°41' E 135°13'0 0.0
2017-Oct-18 03:00N 34°41' E 135°13'0 0.0
2017-Oct-18 02:30N 34°41' E 135°13'0 0.0
2017-Oct-18 02:00N 34°41' E 135°13'0 0.0
2017-Oct-18 01:30N 34°41' E 135°13'0 0.0
2017-Oct-18 01:00N 34°41' E 135°13'0 0.0
2017-Oct-18 00:30N 34°41' E 135°13'0 0.0
2017-Oct-18 00:00N 34°41' E 135°13'0 0.0
2017-Oct-17 23:30N 34°41' E 135°13'0 0.0
2017-Oct-17 23:00N 34°41' E 135°13'0 0.0
2017-Oct-17 22:30N 34°41' E 135°13'0 0.0
2017-Oct-17 22:00N 34°41' E 135°13'0 0.0
2017-Oct-17 21:30N 34°41' E 135°13'0 0.0
2017-Oct-17 20:59N 34°41' E 135°13'0 0.0
2017-Oct-17 20:30N 34°41' E 135°13'0 0.0
2017-Oct-17 20:00N 34°41' E 135°13'0 0.0
2017-Oct-17 19:30N 34°41' E 135°13'0 0.6
2017-Oct-17 19:00N 34°41' E 135°13'3 6.7
2017-Oct-17 18:30N 34°38' E 135°14'612.1
2017-Oct-17 18:00N 34°35' E 135°08'713.8
2017-Oct-17 17:29N 34°37' E 134°59'714.6
2017-Oct-17 16:59N 34°34' E 134°51'3 0.1
2017-Oct-16 06:05N 34°33' E 134°47'114.3
2017-Oct-16 06:00N 34°34' E 134°49'714.0
2017-Oct-16 05:29N 34°37' E 134°57'611.3
2017-Oct-16 04:59N 34°36' E 135°03'612.7
2017-Oct-16 04:30N 34°37' E 135°11'713.5
2017-Oct-16 04:00N 34°38' E 135°19'510.5
2017-Oct-16 03:30N 34°38' E 135°25'0 0.0
2017-Oct-16 03:00N 34°38' E 135°25'0 0.0
2017-Oct-16 02:30N 34°38' E 135°25'0 0.0
2017-Oct-16 02:00N 34°38' E 135°25'4 8.2
2017-Oct-16 01:30N 34°39' E 135°20'5 9.9
2017-Oct-16 01:00N 34°40' E 135°14'0 0.0
2017-Oct-16 00:30N 34°40' E 135°14'0 0.0
2017-Oct-16 00:00N 34°40' E 135°14'0 0.0
2017-Oct-15 23:30N 34°40' E 135°14'0 0.2
2017-Oct-15 23:00N 34°39' E 135°15'2 4.7
2017-Oct-15 22:30N 34°41' E 135°12'0 0.0
2017-Oct-15 22:00N 34°41' E 135°12'0 0.0
2017-Oct-15 21:30N 34°41' E 135°12'0 0.0
2017-Oct-15 21:00N 34°41' E 135°12'0 0.0
2017-Oct-15 20:30N 34°41' E 135°12'0 0.0
2017-Oct-15 20:00N 34°41' E 135°12'0 0.0
2017-Oct-15 19:30N 34°41' E 135°12'0 0.0
2017-Oct-15 19:00N 34°41' E 135°12'0 0.0
2017-Oct-15 18:30N 34°41' E 135°12'0 0.0
2017-Oct-15 18:00N 34°41' E 135°12'0 0.0
2017-Oct-15 17:30N 34°41' E 135°12'0 0.0
2017-Oct-15 17:00N 34°41' E 135°12'0 0.0
2017-Oct-15 16:30N 34°41' E 135°12'0 0.0
2017-Oct-15 16:00N 34°41' E 135°12'0 0.0
2017-Oct-15 15:30N 34°41' E 135°12'0 0.0
2017-Oct-15 15:00N 34°41' E 135°12'0 0.0
2017-Oct-15 14:00N 34°41' E 135°12'0 0.0
2017-Oct-15 13:30N 34°41' E 135°12'0 0.0
2017-Oct-15 13:00N 34°41' E 135°12'0 0.0
2017-Oct-15 12:30N 34°41' E 135°12'0 0.0
2017-Oct-15 12:00N 34°41' E 135°12'0 0.0
2017-Oct-15 11:30N 34°41' E 135°12'0 0.0
2017-Oct-15 11:00N 34°41' E 135°12'0 0.0
2017-Oct-15 10:30N 34°41' E 135°12'0 0.0
2017-Oct-15 10:00N 34°41' E 135°12'0 0.0
2017-Oct-15 09:30N 34°41' E 135°12'0 0.0
2017-Oct-15 09:00N 34°41' E 135°12'0 0.0
2017-Oct-15 08:30N 34°41' E 135°12'0 0.0
2017-Oct-15 08:00N 34°41' E 135°12'0 0.0
2017-Oct-15 07:30N 34°41' E 135°12'0 0.0
2017-Oct-15 07:00N 34°41' E 135°12'0 0.0
2017-Oct-15 06:30N 34°41' E 135°12'0 0.0
2017-Oct-15 06:00N 34°41' E 135°12'0 0.0
2017-Oct-15 05:30N 34°41' E 135°12'0 0.0
2017-Oct-15 05:00N 34°41' E 135°12'0 0.0
2017-Oct-15 04:30N 34°41' E 135°12'0 0.0
2017-Oct-15 04:00N 34°41' E 135°12'0 0.0
2017-Oct-15 03:30N 34°41' E 135°12'0 0.0
2017-Oct-15 03:00N 34°41' E 135°12'0 0.0
2017-Oct-15 02:30N 34°41' E 135°12'0 0.0
2017-Oct-15 02:00N 34°41' E 135°12'0 0.0
2017-Oct-15 01:30N 34°41' E 135°12'0 0.0
2017-Oct-15 01:00N 34°41' E 135°12'0 0.0
2017-Oct-15 00:30N 34°41' E 135°12'0 0.0
2017-Oct-15 00:00N 34°41' E 135°12'2 4.1
2017-Oct-14 23:31N 34°40' E 135°15'5 9.8
2017-Oct-14 23:00N 34°37' E 135°11'612.3
2017-Oct-14 22:30N 34°36' E 135°03'612.1
2017-Oct-14 22:00N 34°36' E 134°56'1 0.0
2017-Oct-13 03:18N 34°37' E 134°56'413.9
2017-Oct-13 02:59N 34°37' E 135°01'612.6
2017-Oct-13 02:30N 34°37' E 135°08'612.2
2017-Oct-13 02:00N 34°39' E 135°15'1 1.2
2017-Oct-13 01:30N 34°39' E 135°15'0 0.0
2017-Oct-13 01:00N 34°39' E 135°15'0 0.0
2017-Oct-13 00:30N 34°39' E 135°15'0 0.5
2017-Oct-13 00:00N 34°39' E 135°15'1 1.1
2017-Oct-12 23:30N 34°39' E 135°15'0 0.1
2017-Oct-12 23:00N 34°39' E 135°15'0 0.0
2017-Oct-12 22:30N 34°39' E 135°15'0 0.1
2017-Oct-12 22:00N 34°39' E 135°15'0 0.0
2017-Oct-12 21:30N 34°39' E 135°15'0 0.0
2017-Oct-12 21:00N 34°39' E 135°15'2 3.7
2017-Oct-12 20:30N 34°37' E 135°14'510.1
2017-Oct-12 20:00N 34°35' E 135°08'611.3
2017-Oct-12 19:30N 34°36' E 135°02'611.3
2017-Oct-12 18:59N 34°35' E 134°55'17 0.4
2017-Oct-11 00:00N 34°39' E 135°15'0 0.0
2017-Oct-10 23:28N 34°39' E 135°15'0 0.0
2017-Oct-10 23:00N 34°39' E 135°15'1 1.4
2017-Oct-10 22:30N 34°38' E 135°15'0 0.0
2017-Oct-10 22:00N 34°38' E 135°15'0 0.0
2017-Oct-10 21:30N 34°38' E 135°15'0 0.1
2017-Oct-10 21:00N 34°38' E 135°15'0 0.0
2017-Oct-10 20:30N 34°38' E 135°15'0 0.0
2017-Oct-10 20:00N 34°38' E 135°15'0 0.0
2017-Oct-10 19:30N 34°38' E 135°15'0 0.1
2017-Oct-10 19:00N 34°38' E 135°15'4 7.5
2017-Oct-10 18:30N 34°36' E 135°11'612.6
2017-Oct-10 18:00N 34°36' E 135°03'713.2
2017-Oct-10 17:28N 34°35' E 134°55'1 0.0
2017-Oct-09 04:23N 34°36' E 134°54'513.5
2017-Oct-09 04:00N 34°38' E 134°59'613.0
2017-Oct-09 03:30N 34°37' E 135°07'713.2
2017-Oct-09 03:01N 34°38' E 135°15'2 3.0
2017-Oct-09 02:30N 34°40' E 135°14'0 0.0
2017-Oct-09 01:59N 34°40' E 135°14'0 0.0
2017-Oct-09 01:30N 34°40' E 135°14'0 0.0
2017-Oct-09 01:01N 34°40' E 135°14'0 0.0
2017-Oct-09 00:31N 34°40' E 135°14'0 0.0
2017-Oct-09 00:00N 34°40' E 135°14'0 0.0
2017-Oct-08 23:31N 34°40' E 135°14'1 2.6
2017-Oct-08 23:00N 34°41' E 135°14'1 1.9
2017-Oct-08 22:31N 34°41' E 135°13'0 0.0
2017-Oct-08 22:00N 34°41' E 135°13'0 0.0
2017-Oct-08 21:30N 34°41' E 135°13'0 0.0
2017-Oct-08 21:00N 34°41' E 135°13'0 0.0
2017-Oct-08 20:31N 34°41' E 135°13'0 0.0
2017-Oct-08 20:01N 34°41' E 135°13'0 0.0
2017-Oct-08 19:30N 34°41' E 135°13'0 0.0
2017-Oct-08 19:00N 34°41' E 135°13'0 0.0
2017-Oct-08 18:30N 34°41' E 135°13'0 0.0
2017-Oct-08 18:01N 34°41' E 135°13'0 0.0
2017-Oct-08 17:31N 34°41' E 135°13'0 0.0
2017-Oct-08 17:00N 34°41' E 135°13'0 0.0
2017-Oct-08 16:30N 34°41' E 135°13'0 0.0
2017-Oct-08 16:01N 34°41' E 135°13'0 0.0
2017-Oct-08 15:30N 34°41' E 135°13'0 0.0
2017-Oct-08 15:00N 34°41' E 135°13'  
Track history (hours):
 
Tides and Currents Weather Stations Pressure Air Temp Water Temp Dewpoint Dewpoint Depression Visibility Wind Speed Wind Dir Waves Ship Positions

Tenma

Last reported at 2017-Oct-18 14:39 UTC. Time now 2017-Oct-18 18:17 UTC.
Position N 34°35' E 134°52'.

Length 80 m; draft 3.6 m.

Type: Cargo ship. MMSI: 431402072.

Date/timePositionNaut miles runAvg speedWind from/ knotsBaromVisibWave heightAir tempDewpointWater temp
2017-Oct-18 14:39N 34°35' E 134°52'812.0
2017-Oct-18 14:00N 34°37' E 135°01'612.9
2017-Oct-18 13:30N 34°37' E 135°09'510.8
2017-Oct-18 13:00N 34°39' E 135°15'0 0.3
2017-Oct-18 12:30N 34°39' E 135°15'0 0.0
2017-Oct-18 12:00N 34°39' E 135°15'0 0.0
2017-Oct-18 11:30N 34°39' E 135°15'0 0.0
2017-Oct-18 11:00N 34°39' E 135°15'0 0.3
2017-Oct-18 10:30N 34°39' E 135°15'0 0.7
2017-Oct-18 10:00N 34°40' E 135°15'3 5.1
2017-Oct-18 09:30N 34°41' E 135°13'0 0.0
2017-Oct-18 09:00N 34°41' E 135°13'0 0.0
2017-Oct-18 08:30N 34°41' E 135°13'0 0.0
2017-Oct-18 08:00N 34°41' E 135°13'0 0.0
2017-Oct-18 07:30N 34°41' E 135°13'0 0.0
2017-Oct-18 07:00N 34°41' E 135°13'0 0.0
2017-Oct-18 06:30N 34°41' E 135°13'0 0.0
2017-Oct-18 06:00N 34°41' E 135°13'0 0.0
2017-Oct-18 05:30N 34°41' E 135°13'0 0.0
2017-Oct-18 05:00N 34°41' E 135°13'0 0.0
2017-Oct-18 04:30N 34°41' E 135°13'0 0.0
2017-Oct-18 04:00N 34°41' E 135°13'0 0.0
2017-Oct-18 03:30N 34°41' E 135°13'0 0.0
2017-Oct-18 03:00N 34°41' E 135°13'0 0.0
2017-Oct-18 02:30N 34°41' E 135°13'0 0.0
2017-Oct-18 02:00N 34°41' E 135°13'0 0.0
2017-Oct-18 01:30N 34°41' E 135°13'0 0.0
2017-Oct-18 01:00N 34°41' E 135°13'0 0.0
2017-Oct-18 00:30N 34°41' E 135°13'0 0.0
2017-Oct-18 00:00N 34°41' E 135°13'0 0.0
2017-Oct-17 23:30N 34°41' E 135°13'0 0.0
2017-Oct-17 23:00N 34°41' E 135°13'0 0.0
2017-Oct-17 22:30N 34°41' E 135°13'0 0.0
2017-Oct-17 22:00N 34°41' E 135°13'0 0.0
2017-Oct-17 21:30N 34°41' E 135°13'0 0.0
2017-Oct-17 20:59N 34°41' E 135°13'0 0.0
2017-Oct-17 20:30N 34°41' E 135°13'0 0.0
2017-Oct-17 20:00N 34°41' E 135°13'0 0.0
2017-Oct-17 19:30N 34°41' E 135°13'0 0.6
2017-Oct-17 19:00N 34°41' E 135°13'3 6.7
2017-Oct-17 18:30N 34°38' E 135°14'612.1
2017-Oct-17 18:00N 34°35' E 135°08'713.8
2017-Oct-17 17:29N 34°37' E 134°59'714.6
2017-Oct-17 16:59N 34°34' E 134°51'3 0.1
2017-Oct-16 06:05N 34°33' E 134°47'114.3
2017-Oct-16 06:00N 34°34' E 134°49'714.0
2017-Oct-16 05:29N 34°37' E 134°57'611.3
2017-Oct-16 04:59N 34°36' E 135°03'612.7
2017-Oct-16 04:30N 34°37' E 135°11'713.5
2017-Oct-16 04:00N 34°38' E 135°19'510.5
2017-Oct-16 03:30N 34°38' E 135°25'0 0.0
2017-Oct-16 03:00N 34°38' E 135°25'0 0.0
2017-Oct-16 02:30N 34°38' E 135°25'0 0.0
2017-Oct-16 02:00N 34°38' E 135°25'4 8.2
2017-Oct-16 01:30N 34°39' E 135°20'5 9.9
2017-Oct-16 01:00N 34°40' E 135°14'0 0.0
2017-Oct-16 00:30N 34°40' E 135°14'0 0.0
2017-Oct-16 00:00N 34°40' E 135°14'0 0.0
2017-Oct-15 23:30N 34°40' E 135°14'0 0.2
2017-Oct-15 23:00N 34°39' E 135°15'2 4.7
2017-Oct-15 22:30N 34°41' E 135°12'0 0.0
2017-Oct-15 22:00N 34°41' E 135°12'0 0.0
2017-Oct-15 21:30N 34°41' E 135°12'0 0.0
2017-Oct-15 21:00N 34°41' E 135°12'0 0.0
2017-Oct-15 20:30N 34°41' E 135°12'0 0.0
2017-Oct-15 20:00N 34°41' E 135°12'0 0.0
2017-Oct-15 19:30N 34°41' E 135°12'0 0.0
2017-Oct-15 19:00N 34°41' E 135°12'0 0.0
2017-Oct-15 18:30N 34°41' E 135°12'0 0.0
2017-Oct-15 18:00N 34°41' E 135°12'0 0.0
2017-Oct-15 17:30N 34°41' E 135°12'0 0.0
2017-Oct-15 17:00N 34°41' E 135°12'0 0.0
2017-Oct-15 16:30N 34°41' E 135°12'0 0.0
2017-Oct-15 16:00N 34°41' E 135°12'0 0.0
2017-Oct-15 15:30N 34°41' E 135°12'0 0.0
2017-Oct-15 15:00N 34°41' E 135°12'0 0.0
2017-Oct-15 14:00N 34°41' E 135°12'0 0.0
2017-Oct-15 13:30N 34°41' E 135°12'0 0.0
2017-Oct-15 13:00N 34°41' E 135°12'0 0.0
2017-Oct-15 12:30N 34°41' E 135°12'0 0.0
2017-Oct-15 12:00N 34°41' E 135°12'0 0.0
2017-Oct-15 11:30N 34°41' E 135°12'0 0.0
2017-Oct-15 11:00N 34°41' E 135°12'0 0.0
2017-Oct-15 10:30N 34°41' E 135°12'0 0.0
2017-Oct-15 10:00N 34°41' E 135°12'0 0.0
2017-Oct-15 09:30N 34°41' E 135°12'0 0.0
2017-Oct-15 09:00N 34°41' E 135°12'0 0.0
2017-Oct-15 08:30N 34°41' E 135°12'0 0.0
2017-Oct-15 08:00N 34°41' E 135°12'0 0.0
2017-Oct-15 07:30N 34°41' E 135°12'0 0.0
2017-Oct-15 07:00N 34°41' E 135°12'0 0.0
2017-Oct-15 06:30N 34°41' E 135°12'0 0.0
2017-Oct-15 06:00N 34°41' E 135°12'0 0.0
2017-Oct-15 05:30N 34°41' E 135°12'0 0.0
2017-Oct-15 05:00N 34°41' E 135°12'0 0.0
2017-Oct-15 04:30N 34°41' E 135°12'0 0.0
2017-Oct-15 04:00N 34°41' E 135°12'0 0.0
2017-Oct-15 03:30N 34°41' E 135°12'0 0.0
2017-Oct-15 03:00N 34°41' E 135°12'0 0.0
2017-Oct-15 02:30N 34°41' E 135°12'0 0.0
2017-Oct-15 02:00N 34°41' E 135°12'0 0.0
2017-Oct-15 01:30N 34°41' E 135°12'0 0.0
2017-Oct-15 01:00N 34°41' E 135°12'0 0.0
2017-Oct-15 00:30N 34°41' E 135°12'0 0.0
2017-Oct-15 00:00N 34°41' E 135°12'2 4.1
2017-Oct-14 23:31N 34°40' E 135°15'5 9.8
2017-Oct-14 23:00N 34°37' E 135°11'612.3
2017-Oct-14 22:30N 34°36' E 135°03'612.1
2017-Oct-14 22:00N 34°36' E 134°56'1 0.0
2017-Oct-13 03:18N 34°37' E 134°56'413.9
2017-Oct-13 02:59N 34°37' E 135°01'612.6
2017-Oct-13 02:30N 34°37' E 135°08'612.2
2017-Oct-13 02:00N 34°39' E 135°15'1 1.2
2017-Oct-13 01:30N 34°39' E 135°15'0 0.0
2017-Oct-13 01:00N 34°39' E 135°15'0 0.0
2017-Oct-13 00:30N 34°39' E 135°15'0 0.5
2017-Oct-13 00:00N 34°39' E 135°15'1 1.1
2017-Oct-12 23:30N 34°39' E 135°15'0 0.1
2017-Oct-12 23:00N 34°39' E 135°15'0 0.0
2017-Oct-12 22:30N 34°39' E 135°15'0 0.1
2017-Oct-12 22:00N 34°39' E 135°15'0 0.0
2017-Oct-12 21:30N 34°39' E 135°15'0 0.0
2017-Oct-12 21:00N 34°39' E 135°15'2 3.7
2017-Oct-12 20:30N 34°37' E 135°14'510.1
2017-Oct-12 20:00N 34°35' E 135°08'611.3
2017-Oct-12 19:30N 34°36' E 135°02'611.3
2017-Oct-12 18:59N 34°35' E 134°55'17 0.4
2017-Oct-11 00:00N 34°39' E 135°15'0 0.0
2017-Oct-10 23:28N 34°39' E 135°15'0 0.0
2017-Oct-10 23:00N 34°39' E 135°15'1 1.4
2017-Oct-10 22:30N 34°38' E 135°15'0 0.0
2017-Oct-10 22:00N 34°38' E 135°15'0 0.0
2017-Oct-10 21:30N 34°38' E 135°15'0 0.1
2017-Oct-10 21:00N 34°38' E 135°15'0 0.0
2017-Oct-10 20:30N 34°38' E 135°15'0 0.0
2017-Oct-10 20:00N 34°38' E 135°15'0 0.0
2017-Oct-10 19:30N 34°38' E 135°15'0 0.1
2017-Oct-10 19:00N 34°38' E 135°15'4 7.5
2017-Oct-10 18:30N 34°36' E 135°11'612.6
2017-Oct-10 18:00N 34°36' E 135°03'713.2
2017-Oct-10 17:28N 34°35' E 134°55'1 0.0
2017-Oct-09 04:23N 34°36' E 134°54'513.5
2017-Oct-09 04:00N 34°38' E 134°59'613.0
2017-Oct-09 03:30N 34°37' E 135°07'713.2
2017-Oct-09 03:01N 34°38' E 135°15'2 3.0
2017-Oct-09 02:30N 34°40' E 135°14'0 0.0
2017-Oct-09 01:59N 34°40' E 135°14'0 0.0
2017-Oct-09 01:30N 34°40' E 135°14'0 0.0
2017-Oct-09 01:01N 34°40' E 135°14'0 0.0
2017-Oct-09 00:31N 34°40' E 135°14'0 0.0
2017-Oct-09 00:00N 34°40' E 135°14'0 0.0
2017-Oct-08 23:31N 34°40' E 135°14'1 2.6
2017-Oct-08 23:00N 34°41' E 135°14'1 1.9
2017-Oct-08 22:31N 34°41' E 135°13'0 0.0
2017-Oct-08 22:00N 34°41' E 135°13'0 0.0
2017-Oct-08 21:30N 34°41' E 135°13'0 0.0
2017-Oct-08 21:00N 34°41' E 135°13'0 0.0
2017-Oct-08 20:31N 34°41' E 135°13'0 0.0
2017-Oct-08 20:01N 34°41' E 135°13'0 0.0
2017-Oct-08 19:30N 34°41' E 135°13'0 0.0
2017-Oct-08 19:00N 34°41' E 135°13'0 0.0
2017-Oct-08 18:30N 34°41' E 135°13'0 0.0
2017-Oct-08 18:01N 34°41' E 135°13'0 0.0
2017-Oct-08 17:31N 34°41' E 135°13'0 0.0
2017-Oct-08 17:00N 34°41' E 135°13'0 0.0
2017-Oct-08 16:30N 34°41' E 135°13'0 0.0
2017-Oct-08 16:01N 34°41' E 135°13'0 0.0
2017-Oct-08 15:30N 34°41' E 135°13'0 0.0
2017-Oct-08 15:00N 34°41' E 135°13'  

Dump ship's entire track history